sensor_id;sensor_type;location;lat;lon;timestamp;pressure;altitude;pressure_sealevel;temperature;humidity
5062;BME280;2351;50.812;12.872;2023-02-03T00:01:54;98552.94;;;0.33;100.00
5062;BME280;2351;50.812;12.872;2023-02-03T00:04:26;98542.59;;;0.32;100.00
5062;BME280;2351;50.812;12.872;2023-02-03T00:06:58;98540.88;;;0.31;100.00
5062;BME280;2351;50.812;12.872;2023-02-03T00:09:31;98538.00;;;0.38;100.00
5062;BME280;2351;50.812;12.872;2023-02-03T00:12:04;98538.28;;;0.31;100.00
5062;BME280;2351;50.812;12.872;2023-02-03T00:14:35;98529.81;;;0.24;100.00
5062;BME280;2351;50.812;12.872;2023-02-03T00:17:08;98528.81;;;0.28;100.00
5062;BME280;2351;50.812;12.872;2023-02-03T00:19:40;98529.94;;;0.21;100.00
5062;BME280;2351;50.812;12.872;2023-02-03T00:22:11;98529.97;;;0.19;100.00
5062;BME280;2351;50.812;12.872;2023-02-03T00:24:44;98516.06;;;0.20;100.00
5062;BME280;2351;50.812;12.872;2023-02-03T00:27:16;98512.75;;;0.15;100.00
5062;BME280;2351;50.812;12.872;2023-02-03T00:29:48;98512.03;;;0.11;100.00
5062;BME280;2351;50.812;12.872;2023-02-03T00:32:19;98508.53;;;0.12;100.00
5062;BME280;2351;50.812;12.872;2023-02-03T00:34:51;98504.31;;;0.08;100.00
5062;BME280;2351;50.812;12.872;2023-02-03T00:37:23;98500.00;;;0.07;100.00
5062;BME280;2351;50.812;12.872;2023-02-03T00:39:56;98495.97;;;-0.02;100.00
5062;BME280;2351;50.812;12.872;2023-02-03T00:42:28;98488.97;;;0.01;100.00
5062;BME280;2351;50.812;12.872;2023-02-03T00:44:59;98488.97;;;0.01;100.00
5062;BME280;2351;50.812;12.872;2023-02-03T00:47:31;98481.22;;;-0.01;100.00
5062;BME280;2351;50.812;12.872;2023-02-03T00:50:03;98484.72;;;-0.02;100.00
5062;BME280;2351;50.812;12.872;2023-02-03T00:52:36;98477.03;;;-0.05;100.00
5062;BME280;2351;50.812;12.872;2023-02-03T00:55:09;98471.94;;;-0.10;100.00
5062;BME280;2351;50.812;12.872;2023-02-03T00:57:41;98468.59;;;-0.12;100.00
5062;BME280;2351;50.812;12.872;2023-02-03T01:00:13;98467.78;;;-0.14;100.00
5062;BME280;2351;50.812;12.872;2023-02-03T01:02:45;98475.63;;;-0.16;100.00
5062;BME280;2351;50.812;12.872;2023-02-03T01:05:17;98464.31;;;-0.14;100.00
5062;BME280;2351;50.812;12.872;2023-02-03T01:07:48;98458.16;;;-0.12;100.00
5062;BME280;2351;50.812;12.872;2023-02-03T01:10:21;98453.59;;;-0.05;100.00
5062;BME280;2351;50.812;12.872;2023-02-03T01:12:53;98442.22;;;-0.03;100.00
5062;BME280;2351;50.812;12.872;2023-02-03T01:15:25;98436.06;;;0.00;100.00
5062;BME280;2351;50.812;12.872;2023-02-03T01:17:56;98416.81;;;0.04;100.00
5062;BME280;2351;50.812;12.872;2023-02-03T01:20:28;98408.88;;;0.09;100.00
5062;BME280;2351;50.812;12.872;2023-02-03T01:23:00;98401.72;;;0.14;100.00
5062;BME280;2351;50.812;12.872;2023-02-03T01:25:35;98396.19;;;0.23;100.00
5062;BME280;2351;50.812;12.872;2023-02-03T01:28:06;98385.59;;;0.28;100.00
5062;BME280;2351;50.812;12.872;2023-02-03T01:30:38;98374.78;;;0.39;100.00
5062;BME280;2351;50.812;12.872;2023-02-03T01:33:10;98382.25;;;0.48;100.00
5062;BME280;2351;50.812;12.872;2023-02-03T01:35:42;98366.25;;;0.57;100.00
5062;BME280;2351;50.812;12.872;2023-02-03T01:38:13;98385.16;;;0.63;100.00
5062;BME280;2351;50.812;12.872;2023-02-03T01:40:46;98383.34;;;0.65;100.00
5062;BME280;2351;50.812;12.872;2023-02-03T01:43:28;98369.31;;;0.69;100.00
5062;BME280;2351;50.812;12.872;2023-02-03T01:46:03;98377.78;;;0.74;100.00
5062;BME280;2351;50.812;12.872;2023-02-03T01:48:37;98375.84;;;0.79;100.00
5062;BME280;2351;50.812;12.872;2023-02-03T01:51:09;98349.66;;;0.82;100.00
5062;BME280;2351;50.812;12.872;2023-02-03T01:53:40;98356.31;;;0.89;100.00
5062;BME280;2351;50.812;12.872;2023-02-03T01:56:14;98371.78;;;0.94;100.00
5062;BME280;2351;50.812;12.872;2023-02-03T01:58:47;98360.25;;;1.00;100.00
5062;BME280;2351;50.812;12.872;2023-02-03T02:01:19;98341.03;;;1.02;100.00
5062;BME280;2351;50.812;12.872;2023-02-03T02:03:53;98342.53;;;1.08;100.00
5062;BME280;2351;50.812;12.872;2023-02-03T02:06:26;98319.63;;;1.16;100.00
5062;BME280;2351;50.812;12.872;2023-02-03T02:08:58;98320.25;;;1.22;100.00
5062;BME280;2351;50.812;12.872;2023-02-03T02:11:33;98319.09;;;1.29;100.00
5062;BME280;2351;50.812;12.872;2023-02-03T02:14:05;98333.78;;;1.31;100.00
5062;BME280;2351;50.812;12.872;2023-02-03T02:16:41;98352.63;;;1.38;100.00
5062;BME280;2351;50.812;12.872;2023-02-03T02:19:33;98339.50;;;1.40;100.00
5062;BME280;2351;50.812;12.872;2023-02-03T02:22:17;98333.25;;;1.44;100.00
5062;BME280;2351;50.812;12.872;2023-02-03T02:25:17;98326.13;;;1.47;100.00
5062;BME280;2351;50.812;12.872;2023-02-03T02:28:23;98331.94;;;1.54;100.00
5062;BME280;2351;50.812;12.872;2023-02-03T02:34:23;98330.03;;;1.58;100.00
5062;BME280;2351;50.812;12.872;2023-02-03T02:37:01;98323.97;;;1.57;100.00
5062;BME280;2351;50.812;12.872;2023-02-03T02:39:39;98311.69;;;1.59;100.00
5062;BME280;2351;50.812;12.872;2023-02-03T02:42:20;98314.25;;;1.61;100.00
5062;BME280;2351;50.812;12.872;2023-02-03T02:44:58;98318.34;;;1.67;100.00
5062;BME280;2351;50.812;12.872;2023-02-03T02:47:35;98310.44;;;1.68;100.00
5062;BME280;2351;50.812;12.872;2023-02-03T02:50:13;98313.78;;;1.72;100.00
5062;BME280;2351;50.812;12.872;2023-02-03T02:52:48;98311.06;;;1.75;100.00
5062;BME280;2351;50.812;12.872;2023-02-03T02:55:23;98295.97;;;1.82;100.00
5062;BME280;2351;50.812;12.872;2023-02-03T02:58:01;98295.75;;;1.86;100.00
5062;BME280;2351;50.812;12.872;2023-02-03T03:00:35;98299.91;;;1.90;100.00
5062;BME280;2351;50.812;12.872;2023-02-03T03:03:12;98291.88;;;1.95;100.00
5062;BME280;2351;50.812;12.872;2023-02-03T03:05:50;98293.44;;;1.99;100.00
5062;BME280;2351;50.812;12.872;2023-02-03T03:08:25;98291.50;;;2.03;100.00
5062;BME280;2351;50.812;12.872;2023-02-03T03:10:59;98294.84;;;2.06;100.00
5062;BME280;2351;50.812;12.872;2023-02-03T03:13:35;98280.72;;;2.10;100.00
5062;BME280;2351;50.812;12.872;2023-02-03T03:16:09;98297.09;;;2.14;100.00
5062;BME280;2351;50.812;12.872;2023-02-03T03:18:47;98290.88;;;2.17;100.00
5062;BME280;2351;50.812;12.872;2023-02-03T03:21:23;98287.22;;;2.21;100.00
5062;BME280;2351;50.812;12.872;2023-02-03T03:23:58;98286.22;;;2.23;100.00
5062;BME280;2351;50.812;12.872;2023-02-03T03:26:35;98293.84;;;2.28;100.00
5062;BME280;2351;50.812;12.872;2023-02-03T03:29:12;98299.78;;;2.32;100.00
5062;BME280;2351;50.812;12.872;2023-02-03T03:31:45;98290.25;;;2.31;100.00
5062;BME280;2351;50.812;12.872;2023-02-03T03:34:17;98294.47;;;2.33;100.00
5062;BME280;2351;50.812;12.872;2023-02-03T03:36:55;98284.03;;;2.33;100.00
5062;BME280;2351;50.812;12.872;2023-02-03T03:39:35;98284.78;;;2.35;100.00
5062;BME280;2351;50.812;12.872;2023-02-03T03:42:12;98287.13;;;2.41;100.00
5062;BME280;2351;50.812;12.872;2023-02-03T03:44:51;98267.09;;;2.42;100.00
5062;BME280;2351;50.812;12.872;2023-02-03T03:47:30;98278.47;;;2.41;100.00
5062;BME280;2351;50.812;12.872;2023-02-03T03:50:08;98282.81;;;2.40;100.00
5062;BME280;2351;50.812;12.872;2023-02-03T03:52:44;98278.38;;;2.43;100.00
5062;BME280;2351;50.812;12.872;2023-02-03T03:55:18;98286.91;;;2.46;100.00
5062;BME280;2351;50.812;12.872;2023-02-03T03:57:54;98276.38;;;2.48;100.00
5062;BME280;2351;50.812;12.872;2023-02-03T04:00:31;98271.06;;;2.49;100.00
5062;BME280;2351;50.812;12.872;2023-02-03T04:03:06;98259.66;;;2.52;100.00
5062;BME280;2351;50.812;12.872;2023-02-03T04:05:42;98249.78;;;2.57;100.00
5062;BME280;2351;50.812;12.872;2023-02-03T04:08:15;98240.13;;;2.59;100.00
5062;BME280;2351;50.812;12.872;2023-02-03T04:10:47;98234.91;;;2.59;100.00
5062;BME280;2351;50.812;12.872;2023-02-03T04:13:18;98224.44;;;2.59;100.00
5062;BME280;2351;50.812;12.872;2023-02-03T04:15:50;98213.06;;;2.60;100.00
5062;BME280;2351;50.812;12.872;2023-02-03T04:18:22;98207.78;;;2.62;100.00
5062;BME280;2351;50.812;12.872;2023-02-03T04:20:54;98198.84;;;2.66;100.00
5062;BME280;2351;50.812;12.872;2023-02-03T04:23:27;98197.09;;;2.66;100.00
5062;BME280;2351;50.812;12.872;2023-02-03T04:26:00;98190.03;;;2.68;100.00
5062;BME280;2351;50.812;12.872;2023-02-03T04:28:31;98177.72;;;2.70;100.00
5062;BME280;2351;50.812;12.872;2023-02-03T04:31:03;98181.03;;;2.74;100.00
5062;BME280;2351;50.812;12.872;2023-02-03T04:33:35;98178.34;;;2.76;100.00
5062;BME280;2351;50.812;12.872;2023-02-03T04:36:07;98171.19;;;2.79;100.00
5062;BME280;2351;50.812;12.872;2023-02-03T04:38:41;98177.19;;;2.81;100.00
5062;BME280;2351;50.812;12.872;2023-02-03T04:41:12;98188.47;;;2.82;100.00
5062;BME280;2351;50.812;12.872;2023-02-03T04:43:44;98197.03;;;2.85;100.00
5062;BME280;2351;50.812;12.872;2023-02-03T04:46:16;98202.25;;;2.85;100.00
5062;BME280;2351;50.812;12.872;2023-02-03T04:48:48;98192.38;;;2.91;100.00
5062;BME280;2351;50.812;12.872;2023-02-03T04:51:20;98205.25;;;2.95;100.00
5062;BME280;2351;50.812;12.872;2023-02-03T04:53:53;98212.91;;;2.98;100.00
5062;BME280;2351;50.812;12.872;2023-02-03T04:56:24;98206.84;;;2.98;100.00
5062;BME280;2351;50.812;12.872;2023-02-03T04:58:56;98197.00;;;3.03;100.00
5062;BME280;2351;50.812;12.872;2023-02-03T05:01:28;98197.06;;;3.01;100.00
5062;BME280;2351;50.812;12.872;2023-02-03T05:03:59;98214.28;;;3.06;100.00
5062;BME280;2351;50.812;12.872;2023-02-03T05:06:32;98182.91;;;3.06;100.00
5062;BME280;2351;50.812;12.872;2023-02-03T05:09:05;98182.84;;;3.07;100.00
5062;BME280;2351;50.812;12.872;2023-02-03T05:11:37;98203.59;;;3.10;100.00
5062;BME280;2351;50.812;12.872;2023-02-03T05:14:09;98209.84;;;3.08;100.00
5062;BME280;2351;50.812;12.872;2023-02-03T05:16:41;98194.03;;;3.09;100.00
5062;BME280;2351;50.812;12.872;2023-02-03T05:19:12;98188.00;;;3.09;100.00
5062;BME280;2351;50.812;12.872;2023-02-03T05:21:44;98177.53;;;3.09;100.00
5062;BME280;2351;50.812;12.872;2023-02-03T05:24:17;98171.47;;;3.08;100.00
5062;BME280;2351;50.812;12.872;2023-02-03T05:26:49;98167.84;;;3.11;100.00
5062;BME280;2351;50.812;12.872;2023-02-03T05:29:20;98181.84;;;3.10;100.00
5062;BME280;2351;50.812;12.872;2023-02-03T05:31:52;98161.75;;;3.10;100.00
5062;BME280;2351;50.812;12.872;2023-02-03T05:34:24;98156.44;;;3.12;100.00
5062;BME280;2351;50.812;12.872;2023-02-03T05:36:56;98146.03;;;3.10;100.00
5062;BME280;2351;50.812;12.872;2023-02-03T05:39:29;98137.22;;;3.13;100.00
5062;BME280;2351;50.812;12.872;2023-02-03T05:42:01;98133.84;;;3.11;100.00
5062;BME280;2351;50.812;12.872;2023-02-03T05:44:32;98132.91;;;3.12;100.00
5062;BME280;2351;50.812;12.872;2023-02-03T05:47:04;98148.59;;;3.12;100.00
5062;BME280;2351;50.812;12.872;2023-02-03T05:49:36;98150.34;;;3.11;100.00
5062;BME280;2351;50.812;12.872;2023-02-03T05:52:07;98159.06;;;3.12;100.00
5062;BME280;2351;50.812;12.872;2023-02-03T05:54:40;98148.59;;;3.12;100.00
5062;BME280;2351;50.812;12.872;2023-02-03T05:57:12;98144.81;;;3.17;100.00
5062;BME280;2351;50.812;12.872;2023-02-03T05:59:44;98145.56;;;3.20;100.00
5062;BME280;2351;50.812;12.872;2023-02-03T06:02:16;98153.44;;;3.20;100.00
5062;BME280;2351;50.812;12.872;2023-02-03T06:04:47;98162.88;;;3.22;100.00
5062;BME280;2351;50.812;12.872;2023-02-03T06:07:19;98167.28;;;3.22;100.00
5062;BME280;2351;50.812;12.872;2023-02-03T06:09:52;98167.44;;;3.19;100.00
5062;BME280;2351;50.812;12.872;2023-02-03T06:12:24;98156.88;;;3.20;100.00
5062;BME280;2351;50.812;12.872;2023-02-03T06:14:56;98156.81;;;3.22;100.00
5062;BME280;2351;50.812;12.872;2023-02-03T06:17:27;98146.34;;;3.22;100.00
5062;BME280;2351;50.812;12.872;2023-02-03T06:19:59;98144.56;;;3.22;100.00
5062;BME280;2351;50.812;12.872;2023-02-03T06:22:32;98139.25;;;3.24;100.00
5062;BME280;2351;50.812;12.872;2023-02-03T06:25:05;98129.72;;;3.23;100.00
5062;BME280;2351;50.812;12.872;2023-02-03T06:27:37;98120.09;;;3.23;100.00
5062;BME280;2351;50.812;12.872;2023-02-03T06:30:10;98115.63;;;3.25;100.00
5062;BME280;2351;50.812;12.872;2023-02-03T06:32:42;98115.72;;;3.24;100.00
5062;BME280;2351;50.812;12.872;2023-02-03T06:35:14;98117.41;;;3.25;100.00
5062;BME280;2351;50.812;12.872;2023-02-03T06:37:46;98119.78;;;3.29;100.00
5062;BME280;2351;50.812;12.872;2023-02-03T06:40:19;98107.63;;;3.28;100.00
5062;BME280;2351;50.812;12.872;2023-02-03T06:42:51;98094.53;;;3.28;100.00
5062;BME280;2351;50.812;12.872;2023-02-03T06:45:23;98096.88;;;3.33;100.00
5062;BME280;2351;50.812;12.872;2023-02-03T06:47:55;98086.53;;;3.31;100.00
5062;BME280;2351;50.812;12.872;2023-02-03T06:50:27;98092.53;;;3.34;100.00
5062;BME280;2351;50.812;12.872;2023-02-03T06:52:58;98088.06;;;3.36;100.00
5062;BME280;2351;50.812;12.872;2023-02-03T06:55:32;98084.72;;;3.32;100.00
5062;BME280;2351;50.812;12.872;2023-02-03T06:58:03;98081.91;;;3.37;100.00
5062;BME280;2351;50.812;12.872;2023-02-03T07:00:35;98087.19;;;3.35;100.00
5062;BME280;2351;50.812;12.872;2023-02-03T07:03:07;98089.75;;;3.37;100.00
5062;BME280;2351;50.812;12.872;2023-02-03T07:05:39;98081.91;;;3.37;100.00
5062;BME280;2351;50.812;12.872;2023-02-03T07:08:10;98076.72;;;3.35;100.00
5062;BME280;2351;50.812;12.872;2023-02-03T07:10:43;98081.03;;;3.36;100.00
5062;BME280;2351;50.812;12.872;2023-02-03T07:13:15;98075.63;;;3.39;100.00
5062;BME280;2351;50.812;12.872;2023-02-03T07:15:47;98074.72;;;3.40;100.00
5062;BME280;2351;50.812;12.872;2023-02-03T07:18:19;98072.84;;;3.42;100.00
5062;BME280;2351;50.812;12.872;2023-02-03T07:20:53;98056.88;;;3.47;100.00
5062;BME280;2351;50.812;12.872;2023-02-03T07:23:25;98053.84;;;3.55;100.00
5062;BME280;2351;50.812;12.872;2023-02-03T07:25:59;98047.03;;;3.52;100.00
5062;BME280;2351;50.812;12.872;2023-02-03T07:28:32;98052.09;;;3.55;100.00
5062;BME280;2351;50.812;12.872;2023-02-03T07:31:05;98042.38;;;3.57;100.00
5062;BME280;2351;50.812;12.872;2023-02-03T07:33:39;98050.91;;;3.61;100.00
5062;BME280;2351;50.812;12.872;2023-02-03T07:36:11;98042.03;;;3.64;100.00
5062;BME280;2351;50.812;12.872;2023-02-03T07:38:42;98041.84;;;3.67;100.00
5062;BME280;2351;50.812;12.872;2023-02-03T07:41:16;98045.22;;;3.69;100.00
5062;BME280;2351;50.812;12.872;2023-02-03T07:43:47;98034.91;;;3.66;100.00
5062;BME280;2351;50.812;12.872;2023-02-03T07:46:19;98039.22;;;3.67;100.00
5062;BME280;2351;50.812;12.872;2023-02-03T07:48:51;98027.06;;;3.66;100.00
5062;BME280;2351;50.812;12.872;2023-02-03T07:51:22;98024.03;;;3.73;100.00
5062;BME280;2351;50.812;12.872;2023-02-03T07:53:55;98023.44;;;3.68;100.00
5062;BME280;2351;50.812;12.872;2023-02-03T07:56:28;98025.78;;;3.73;100.00
5062;BME280;2351;50.812;12.872;2023-02-03T07:59:02;98024.97;;;3.72;100.00
5062;BME280;2351;50.812;12.872;2023-02-03T08:01:33;98031.97;;;3.72;100.00
5062;BME280;2351;50.812;12.872;2023-02-03T08:04:05;98027.75;;;3.69;100.00
5062;BME280;2351;50.812;12.872;2023-02-03T08:06:38;98034.50;;;3.73;100.00
5062;BME280;2351;50.812;12.872;2023-02-03T08:09:09;98022.25;;;3.74;100.00
5062;BME280;2351;50.812;12.872;2023-02-03T08:11:42;98021.91;;;3.80;100.00
5062;BME280;2351;50.812;12.872;2023-02-03T08:14:14;98010.13;;;3.87;100.00
5062;BME280;2351;50.812;12.872;2023-02-03T08:16:46;98012.03;;;3.85;100.00
5062;BME280;2351;50.812;12.872;2023-02-03T08:19:17;98019.03;;;3.85;100.00
5062;BME280;2351;50.812;12.872;2023-02-03T08:21:49;98008.53;;;3.85;100.00
5062;BME280;2351;50.812;12.872;2023-02-03T08:24:21;98005.09;;;3.84;100.00
5062;BME280;2351;50.812;12.872;2023-02-03T08:26:54;97998.94;;;3.85;100.00
5062;BME280;2351;50.812;12.872;2023-02-03T08:29:26;98004.34;;;3.82;100.00
5062;BME280;2351;50.812;12.872;2023-02-03T08:31:58;97993.75;;;3.84;100.00
5062;BME280;2351;50.812;12.872;2023-02-03T08:34:29;97994.53;;;3.86;100.00
5062;BME280;2351;50.812;12.872;2023-02-03T08:37:03;97992.56;;;3.89;100.00
5062;BME280;2351;50.812;12.872;2023-02-03T08:39:36;97988.19;;;3.90;100.00
5062;BME280;2351;50.812;12.872;2023-02-03T08:42:09;97983.94;;;3.87;100.00
5062;BME280;2351;50.812;12.872;2023-02-03T08:47:19;97993.72;;;4.00;100.00
5062;BME280;2351;50.812;12.872;2023-02-03T08:49:51;97992.97;;;3.98;100.00
5062;BME280;2351;50.812;12.872;2023-02-03T08:52:23;97986.16;;;3.95;100.00
5062;BME280;2351;50.812;12.872;2023-02-03T08:54:55;97981.72;;;3.96;100.00
5062;BME280;2351;50.812;12.872;2023-02-03T08:57:31;97978.75;;;4.02;100.00
5062;BME280;2351;50.812;12.872;2023-02-03T09:00:04;97972.41;;;4.06;100.00
5062;BME280;2351;50.812;12.872;2023-02-03T09:02:36;97967.53;;;4.14;100.00
5062;BME280;2351;50.812;12.872;2023-02-03T09:05:08;97973.53;;;4.16;100.00
5062;BME280;2351;50.812;12.872;2023-02-03T09:07:40;97969.69;;;4.07;100.00
5062;BME280;2351;50.812;12.872;2023-02-03T09:10:12;97979.34;;;4.07;100.00
5062;BME280;2351;50.812;12.872;2023-02-03T09:12:45;97962.31;;;4.14;100.00
5062;BME280;2351;50.812;12.872;2023-02-03T09:15:17;97958.00;;;4.13;100.00
5062;BME280;2351;50.812;12.872;2023-02-03T09:17:48;97950.72;;;4.18;100.00
5062;BME280;2351;50.812;12.872;2023-02-03T09:20:20;97945.28;;;4.21;100.00
5062;BME280;2351;50.812;12.872;2023-02-03T09:22:53;97932.28;;;4.20;100.00
5062;BME280;2351;50.812;12.872;2023-02-03T09:25:28;97926.03;;;4.22;100.00
5062;BME280;2351;50.812;12.872;2023-02-03T09:28:01;97918.91;;;4.25;100.00
5062;BME280;2351;50.812;12.872;2023-02-03T09:30:33;97917.03;;;4.27;100.00
5062;BME280;2351;50.812;12.872;2023-02-03T09:33:05;97918.34;;;4.34;100.00
5062;BME280;2351;50.812;12.872;2023-02-03T09:35:37;97911.41;;;4.33;100.00
5062;BME280;2351;50.812;12.872;2023-02-03T09:38:09;97909.47;;;4.36;100.00
5062;BME280;2351;50.812;12.872;2023-02-03T09:40:41;97877.53;;;4.44;100.00
5062;BME280;2351;50.812;12.872;2023-02-03T09:43:23;97891.59;;;4.43;100.00
5062;BME280;2351;50.812;12.872;2023-02-03T09:46:01;97886.97;;;4.47;100.00
5062;BME280;2351;50.812;12.872;2023-02-03T09:48:36;97889.53;;;4.48;100.00
5062;BME280;2351;50.812;12.872;2023-02-03T09:51:17;97891.00;;;4.52;100.00
5062;BME280;2351;50.812;12.872;2023-02-03T09:53:55;97881.25;;;4.55;100.00
5062;BME280;2351;50.812;12.872;2023-02-03T09:56:30;97879.38;;;4.57;100.00
5062;BME280;2351;50.812;12.872;2023-02-03T09:59:04;97880.13;;;4.59;100.00
5062;BME280;2351;50.812;12.872;2023-02-03T10:01:42;97879.94;;;4.62;100.00
5062;BME280;2351;50.812;12.872;2023-02-03T10:04:25;97881.00;;;4.59;100.00
5062;BME280;2351;50.812;12.872;2023-02-03T10:07:06;97871.03;;;4.64;100.00
5062;BME280;2351;50.812;12.872;2023-02-03T10:09:49;97876.28;;;4.64;100.00
5062;BME280;2351;50.812;12.872;2023-02-03T10:12:50;97877.03;;;4.66;100.00
5062;BME280;2351;50.812;12.872;2023-02-03T10:15:46;97876.19;;;4.66;100.00
5062;BME280;2351;50.812;12.872;2023-02-03T10:18:24;97872.53;;;4.68;100.00
5062;BME280;2351;50.812;12.872;2023-02-03T10:21:01;97861.22;;;4.68;100.00
5062;BME280;2351;50.812;12.872;2023-02-03T10:23:38;97863.84;;;4.68;100.00
5062;BME280;2351;50.812;12.872;2023-02-03T10:26:16;97846.22;;;4.70;100.00
5062;BME280;2351;50.812;12.872;2023-02-03T10:28:53;97842.47;;;4.74;100.00
5062;BME280;2351;50.812;12.872;2023-02-03T10:31:27;97842.06;;;4.80;100.00
5062;BME280;2351;50.812;12.872;2023-02-03T10:34:09;97843.75;;;4.81;100.00
5062;BME280;2351;50.812;12.872;2023-02-03T10:36:55;97834.84;;;4.84;100.00
5062;BME280;2351;50.812;12.872;2023-02-03T10:39:30;97834.94;;;4.82;100.00
5062;BME280;2351;50.812;12.872;2023-02-03T10:42:04;97844.50;;;4.83;100.00
5062;BME280;2351;50.812;12.872;2023-02-03T10:44:38;97838.69;;;4.78;100.00
5062;BME280;2351;50.812;12.872;2023-02-03T10:47:19;97828.63;;;4.72;100.00
5062;BME280;2351;50.812;12.872;2023-02-03T10:49:54;97817.38;;;4.70;100.00
5062;BME280;2351;50.812;12.872;2023-02-03T10:52:28;97805.28;;;4.67;100.00
5062;BME280;2351;50.812;12.872;2023-02-03T10:55:04;97785.56;;;4.62;100.00
5062;BME280;2351;50.812;12.872;2023-02-03T10:57:37;97785.94;;;4.56;100.00
5062;BME280;2351;50.812;12.872;2023-02-03T11:00:21;97790.44;;;4.53;100.00
5062;BME280;2351;50.812;12.872;2023-02-03T11:02:56;97785.44;;;4.50;100.00
5062;BME280;2351;50.812;12.872;2023-02-03T11:05:29;97767.16;;;4.49;100.00
5062;BME280;2351;50.812;12.872;2023-02-03T11:08:01;97774.38;;;4.45;100.00
5062;BME280;2351;50.812;12.872;2023-02-03T11:10:35;97775.31;;;4.44;100.00
5062;BME280;2351;50.812;12.872;2023-02-03T11:13:14;97774.69;;;4.41;100.00
5062;BME280;2351;50.812;12.872;2023-02-03T11:15:51;97784.31;;;4.40;100.00
5062;BME280;2351;50.812;12.872;2023-02-03T11:18:41;97778.31;;;4.38;100.00
5062;BME280;2351;50.812;12.872;2023-02-03T11:21:16;97782.81;;;4.36;100.00
5062;BME280;2351;50.812;12.872;2023-02-03T11:23:52;97778.72;;;4.32;100.00
5062;BME280;2351;50.812;12.872;2023-02-03T11:26:27;97789.19;;;4.32;100.00
5062;BME280;2351;50.812;12.872;2023-02-03T11:29:01;97773.28;;;4.35;100.00
5062;BME280;2351;50.812;12.872;2023-02-03T11:31:35;97772.53;;;4.33;100.00
5062;BME280;2351;50.812;12.872;2023-02-03T11:34:15;97777.03;;;4.31;100.00
5062;BME280;2351;50.812;12.872;2023-02-03T11:36:47;97776.00;;;4.33;100.00
5062;BME280;2351;50.812;12.872;2023-02-03T11:39:24;97780.50;;;4.31;100.00
5062;BME280;2351;50.812;12.872;2023-02-03T11:41:56;97770.13;;;4.30;100.00
5062;BME280;2351;50.812;12.872;2023-02-03T11:44:29;97761.41;;;4.29;100.00
5062;BME280;2351;50.812;12.872;2023-02-03T11:47:06;97772.00;;;4.28;100.00
5062;BME280;2351;50.812;12.872;2023-02-03T11:50:13;97768.44;;;4.29;100.00
5062;BME280;2351;50.812;12.872;2023-02-03T11:52:58;97763.28;;;4.27;100.00
5062;BME280;2351;50.812;12.872;2023-02-03T11:55:44;97759.09;;;4.25;100.00
5062;BME280;2351;50.812;12.872;2023-02-03T11:58:38;97758.44;;;4.21;100.00
5062;BME280;2351;50.812;12.872;2023-02-03T12:01:20;97763.66;;;4.21;100.00
5062;BME280;2351;50.812;12.872;2023-02-03T12:07:30;97733.09;;;4.21;100.00
5062;BME280;2351;50.812;12.872;2023-02-03T12:10:15;97737.28;;;4.24;100.00
5062;BME280;2351;50.812;12.872;2023-02-03T12:12:59;97738.88;;;4.27;100.00
5062;BME280;2351;50.812;12.872;2023-02-03T12:15:49;97742.03;;;4.32;100.00
5062;BME280;2351;50.812;12.872;2023-02-03T12:18:32;97736.59;;;4.35;100.00
5062;BME280;2351;50.812;12.872;2023-02-03T12:21:32;97727.72;;;4.37;100.00
5062;BME280;2351;50.812;12.872;2023-02-03T12:24:17;97731.78;;;4.42;100.00
5062;BME280;2351;50.812;12.872;2023-02-03T12:27:00;97740.41;;;4.44;100.00
5062;BME280;2351;50.812;12.872;2023-02-03T12:29:38;97747.31;;;4.45;100.00
5062;BME280;2351;50.812;12.872;2023-02-03T12:32:19;97729.53;;;4.50;100.00
5062;BME280;2351;50.812;12.872;2023-02-03T12:34:59;97731.31;;;4.49;100.00
5062;BME280;2351;50.812;12.872;2023-02-03T12:37:38;97736.56;;;4.49;100.00
5062;BME280;2351;50.812;12.872;2023-02-03T12:40:17;97741.59;;;4.52;100.00
5062;BME280;2351;50.812;12.872;2023-02-03T12:42:56;97735.41;;;4.53;100.00
5062;BME280;2351;50.812;12.872;2023-02-03T12:45:31;97738.97;;;4.52;100.00
5062;BME280;2351;50.812;12.872;2023-02-03T12:48:11;97727.66;;;4.52;100.00
5062;BME280;2351;50.812;12.872;2023-02-03T12:50:48;97721.34;;;4.55;100.00
5062;BME280;2351;50.812;12.872;2023-02-03T12:53:23;97708.06;;;4.58;100.00
5062;BME280;2351;50.812;12.872;2023-02-03T12:56:04;97709.84;;;4.57;100.00
5062;BME280;2351;50.812;12.872;2023-02-03T12:58:44;97689.69;;;4.58;100.00
5062;BME280;2351;50.812;12.872;2023-02-03T13:01:21;97687.75;;;4.61;100.00
5062;BME280;2351;50.812;12.872;2023-02-03T13:03:59;97686.69;;;4.64;100.00
5062;BME280;2351;50.812;12.872;2023-02-03T13:06:40;97686.56;;;4.65;100.00
5062;BME280;2351;50.812;12.872;2023-02-03T13:09:29;97687.31;;;4.67;100.00
5062;BME280;2351;50.812;12.872;2023-02-03T13:12:07;97688.72;;;4.73;100.00
5062;BME280;2351;50.812;12.872;2023-02-03T13:14:43;97669.19;;;4.77;100.00
5062;BME280;2351;50.812;12.872;2023-02-03T13:17:21;97676.13;;;4.78;100.00
5062;BME280;2351;50.812;12.872;2023-02-03T13:19:59;97693.34;;;4.82;100.00
5062;BME280;2351;50.812;12.872;2023-02-03T13:22:33;97698.56;;;4.82;100.00
5062;BME280;2351;50.812;12.872;2023-02-03T13:25:15;97692.06;;;4.88;100.00
5062;BME280;2351;50.812;12.872;2023-02-03T13:27:58;97710.44;;;4.88;100.00
5062;BME280;2351;50.812;12.872;2023-02-03T13:30:55;97700.47;;;4.93;100.00
5062;BME280;2351;50.812;12.872;2023-02-03T13:34:10;97736.50;;;5.04;100.00
5062;BME280;2351;50.812;12.872;2023-02-03T13:40:12;97728.53;;;5.06;100.00
5062;BME280;2351;50.812;12.872;2023-02-03T13:42:53;97744.16;;;5.07;100.00
5062;BME280;2351;50.812;12.872;2023-02-03T13:45:28;97739.44;;;5.12;100.00
5062;BME280;2351;50.812;12.872;2023-02-03T13:48:08;97758.56;;;5.15;100.00
5062;BME280;2351;50.812;12.872;2023-02-03T13:50:42;97741.88;;;5.16;100.00
5062;BME280;2351;50.812;12.872;2023-02-03T13:53:17;97744.78;;;5.24;100.00
5062;BME280;2351;50.812;12.872;2023-02-03T13:55:53;97746.28;;;5.28;100.00
5062;BME280;2351;50.812;12.872;2023-02-03T13:58:29;97750.91;;;5.37;100.00
5062;BME280;2351;50.812;12.872;2023-02-03T14:03:53;97737.47;;;5.29;100.00
5062;BME280;2351;50.812;12.872;2023-02-03T14:06:56;97735.03;;;5.26;100.00
5062;BME280;2351;50.812;12.872;2023-02-03T14:09:37;97745.22;;;5.31;100.00